Weather at Tawang Air Force Station

Public forecast

Using degrees Celsius for public forecast. Weather courtesy of forecast.io.

Closest aviation weather report (METAR) to Tawang Air Force Station

Closest report is Lokpriya Gopinath Bordoloi International Airport, 90.4 nm (167.4 km) S. Retrieved 2020/09/28 02:30 UTC (0 seconds ago):

VEGT 280230Z 00000KT 4500 BR SCT018 BKN100 30/30 Q1007 NOSIG

Closest aviation forecast (TAF) to Tawang Air Force Station

Forecast is more than 12 hours old.

Closest forecast is Tezpur Airport, 71.7 nm (132.7 km) SE. Retrieved 2020/09/27 12:30 UTC (14 hours ago):

TAF VETZ 270930Z 2712/2724 23008KT 6000 SCT020 BKN100 TEMPO 2713/2715 23010KT 3000 -TSRA SCT010 SCT015 FEW025CB BKN100 TEMPO 2722/2724 3000 -TSRA SCT010 SCT015 FEW025CB BKN100